sensor_id;sensor_type;location;lat;lon;timestamp;temperature;humidity
36292;DHT22;22327;51.208;6.418;2022-10-16T00:00:18;16.90;99.90
36292;DHT22;22327;51.208;6.418;2022-10-16T00:02:43;16.90;99.90
36292;DHT22;22327;51.208;6.418;2022-10-16T00:05:09;16.90;99.90
36292;DHT22;22327;51.208;6.418;2022-10-16T00:07:35;16.90;99.90
36292;DHT22;22327;51.208;6.418;2022-10-16T00:10:00;16.90;99.90
36292;DHT22;22327;51.208;6.418;2022-10-16T00:12:26;17.00;99.90
36292;DHT22;22327;51.208;6.418;2022-10-16T00:14:51;17.00;99.90
36292;DHT22;22327;51.208;6.418;2022-10-16T00:17:17;16.90;99.90
36292;DHT22;22327;51.208;6.418;2022-10-16T00:19:42;17.00;99.90
36292;DHT22;22327;51.208;6.418;2022-10-16T00:22:08;16.90;99.90
36292;DHT22;22327;51.208;6.418;2022-10-16T00:24:34;17.00;99.90
36292;DHT22;22327;51.208;6.418;2022-10-16T00:26:59;16.90;99.90
36292;DHT22;22327;51.208;6.418;2022-10-16T00:29:25;16.90;99.90
36292;DHT22;22327;51.208;6.418;2022-10-16T00:31:50;16.90;99.90
36292;DHT22;22327;51.208;6.418;2022-10-16T00:34:16;16.90;99.90
36292;DHT22;22327;51.208;6.418;2022-10-16T00:36:41;16.90;99.90
36292;DHT22;22327;51.208;6.418;2022-10-16T00:39:07;16.90;99.90
36292;DHT22;22327;51.208;6.418;2022-10-16T00:41:33;16.90;99.90
36292;DHT22;22327;51.208;6.418;2022-10-16T00:44:01;16.90;99.90
36292;DHT22;22327;51.208;6.418;2022-10-16T00:51:44;16.90;99.90
36292;DHT22;22327;51.208;6.418;2022-10-16T00:54:19;16.90;99.90
36292;DHT22;22327;51.208;6.418;2022-10-16T00:56:46;16.90;99.90
36292;DHT22;22327;51.208;6.418;2022-10-16T00:59:25;16.80;99.90
36292;DHT22;22327;51.208;6.418;2022-10-16T01:01:52;16.80;99.90
36292;DHT22;22327;51.208;6.418;2022-10-16T01:04:18;16.90;99.90
36292;DHT22;22327;51.208;6.418;2022-10-16T01:09:25;16.90;99.90
36292;DHT22;22327;51.208;6.418;2022-10-16T01:12:13;16.90;99.90
36292;DHT22;22327;51.208;6.418;2022-10-16T01:17:15;16.90;99.90
36292;DHT22;22327;51.208;6.418;2022-10-16T01:19:50;16.90;99.90
36292;DHT22;22327;51.208;6.418;2022-10-16T01:22:20;16.80;99.90
36292;DHT22;22327;51.208;6.418;2022-10-16T01:24:48;16.80;99.90
36292;DHT22;22327;51.208;6.418;2022-10-16T01:30:10;16.90;99.90
36292;DHT22;22327;51.208;6.418;2022-10-16T01:32:52;16.90;99.90
36292;DHT22;22327;51.208;6.418;2022-10-16T01:35:30;16.80;99.90
36292;DHT22;22327;51.208;6.418;2022-10-16T01:38:07;16.80;99.90
36292;DHT22;22327;51.208;6.418;2022-10-16T01:40:35;16.70;99.90
36292;DHT22;22327;51.208;6.418;2022-10-16T01:43:08;16.70;99.90
36292;DHT22;22327;51.208;6.418;2022-10-16T01:45:36;16.80;99.90
36292;DHT22;22327;51.208;6.418;2022-10-16T01:48:03;16.70;99.90
36292;DHT22;22327;51.208;6.418;2022-10-16T01:50:36;16.70;99.90
36292;DHT22;22327;51.208;6.418;2022-10-16T01:53:03;16.70;99.90
36292;DHT22;22327;51.208;6.418;2022-10-16T01:55:33;16.70;99.90
36292;DHT22;22327;51.208;6.418;2022-10-16T01:58:01;16.80;99.90
36292;DHT22;22327;51.208;6.418;2022-10-16T02:00:29;16.80;99.90
36292;DHT22;22327;51.208;6.418;2022-10-16T02:02:58;16.80;99.90
36292;DHT22;22327;51.208;6.418;2022-10-16T02:05:34;16.80;99.90
36292;DHT22;22327;51.208;6.418;2022-10-16T02:08:02;16.80;99.90
36292;DHT22;22327;51.208;6.418;2022-10-16T02:10:28;16.80;99.90
36292;DHT22;22327;51.208;6.418;2022-10-16T02:13:11;16.80;99.90
36292;DHT22;22327;51.208;6.418;2022-10-16T02:15:38;16.90;99.90
36292;DHT22;22327;51.208;6.418;2022-10-16T02:18:05;16.80;99.90
36292;DHT22;22327;51.208;6.418;2022-10-16T02:20:37;16.90;99.90
36292;DHT22;22327;51.208;6.418;2022-10-16T02:23:08;16.90;99.90
36292;DHT22;22327;51.208;6.418;2022-10-16T02:25:38;16.90;99.90
36292;DHT22;22327;51.208;6.418;2022-10-16T02:28:13;17.00;99.90
36292;DHT22;22327;51.208;6.418;2022-10-16T02:30:49;17.10;99.90
36292;DHT22;22327;51.208;6.418;2022-10-16T02:33:17;17.10;99.70
36292;DHT22;22327;51.208;6.418;2022-10-16T02:35:46;17.10;99.60
36292;DHT22;22327;51.208;6.418;2022-10-16T02:38:14;17.20;99.50
36292;DHT22;22327;51.208;6.418;2022-10-16T02:40:40;17.20;99.30
36292;DHT22;22327;51.208;6.418;2022-10-16T02:43:06;17.20;99.20
36292;DHT22;22327;51.208;6.418;2022-10-16T02:45:32;17.20;99.20
36292;DHT22;22327;51.208;6.418;2022-10-16T02:47:57;17.20;99.10
36292;DHT22;22327;51.208;6.418;2022-10-16T02:50:23;17.20;98.90
36292;DHT22;22327;51.208;6.418;2022-10-16T02:52:50;17.20;98.90
36292;DHT22;22327;51.208;6.418;2022-10-16T02:55:16;17.20;98.80
36292;DHT22;22327;51.208;6.418;2022-10-16T02:57:41;17.20;98.80
36292;DHT22;22327;51.208;6.418;2022-10-16T03:00:12;17.20;98.70
36292;DHT22;22327;51.208;6.418;2022-10-16T03:02:38;17.20;98.70
36292;DHT22;22327;51.208;6.418;2022-10-16T03:05:04;17.10;98.60
36292;DHT22;22327;51.208;6.418;2022-10-16T03:07:30;17.10;98.70
36292;DHT22;22327;51.208;6.418;2022-10-16T03:09:56;17.10;98.70
36292;DHT22;22327;51.208;6.418;2022-10-16T03:12:21;17.00;98.70
36292;DHT22;22327;51.208;6.418;2022-10-16T03:14:47;17.00;98.70
36292;DHT22;22327;51.208;6.418;2022-10-16T03:17:13;17.00;98.80
36292;DHT22;22327;51.208;6.418;2022-10-16T03:19:38;17.00;98.80
36292;DHT22;22327;51.208;6.418;2022-10-16T03:22:04;16.90;98.80
36292;DHT22;22327;51.208;6.418;2022-10-16T03:24:30;16.90;98.90
36292;DHT22;22327;51.208;6.418;2022-10-16T03:26:55;16.90;98.80
36292;DHT22;22327;51.208;6.418;2022-10-16T03:29:21;16.90;98.80
36292;DHT22;22327;51.208;6.418;2022-10-16T03:31:46;16.90;98.80
36292;DHT22;22327;51.208;6.418;2022-10-16T03:34:13;16.90;98.80
36292;DHT22;22327;51.208;6.418;2022-10-16T03:36:39;16.90;98.80
36292;DHT22;22327;51.208;6.418;2022-10-16T03:39:04;16.90;98.70
36292;DHT22;22327;51.208;6.418;2022-10-16T03:41:30;16.90;98.70
36292;DHT22;22327;51.208;6.418;2022-10-16T03:43:55;16.90;98.60
36292;DHT22;22327;51.208;6.418;2022-10-16T03:46:21;16.80;98.60
36292;DHT22;22327;51.208;6.418;2022-10-16T03:48:47;16.80;98.70
36292;DHT22;22327;51.208;6.418;2022-10-16T03:51:12;16.80;98.70
36292;DHT22;22327;51.208;6.418;2022-10-16T03:53:38;16.70;98.70
36292;DHT22;22327;51.208;6.418;2022-10-16T03:56:03;16.60;98.80
36292;DHT22;22327;51.208;6.418;2022-10-16T03:58:29;16.50;98.90
36292;DHT22;22327;51.208;6.418;2022-10-16T04:00:55;16.50;99.00
36292;DHT22;22327;51.208;6.418;2022-10-16T04:03:20;16.40;99.10
36292;DHT22;22327;51.208;6.418;2022-10-16T04:05:46;16.40;99.20
36292;DHT22;22327;51.208;6.418;2022-10-16T04:08:12;16.40;99.20
36292;DHT22;22327;51.208;6.418;2022-10-16T04:10:37;16.30;99.30
36292;DHT22;22327;51.208;6.418;2022-10-16T04:13:03;16.30;99.40
36292;DHT22;22327;51.208;6.418;2022-10-16T04:15:28;16.30;99.50
36292;DHT22;22327;51.208;6.418;2022-10-16T04:17:54;16.30;99.70
36292;DHT22;22327;51.208;6.418;2022-10-16T04:20:19;16.30;99.90
36292;DHT22;22327;51.208;6.418;2022-10-16T04:22:45;16.30;99.80
36292;DHT22;22327;51.208;6.418;2022-10-16T04:25:11;16.20;99.70
36292;DHT22;22327;51.208;6.418;2022-10-16T04:27:37;16.30;99.70
36292;DHT22;22327;51.208;6.418;2022-10-16T04:30:03;16.30;99.90
36292;DHT22;22327;51.208;6.418;2022-10-16T04:32:29;16.30;99.80
36292;DHT22;22327;51.208;6.418;2022-10-16T04:34:55;16.20;99.90
36292;DHT22;22327;51.208;6.418;2022-10-16T04:37:25;16.20;99.90
36292;DHT22;22327;51.208;6.418;2022-10-16T04:39:51;16.20;99.90
36292;DHT22;22327;51.208;6.418;2022-10-16T04:42:16;16.20;99.90
36292;DHT22;22327;51.208;6.418;2022-10-16T04:44:42;16.30;99.90
36292;DHT22;22327;51.208;6.418;2022-10-16T04:47:08;16.20;99.90
36292;DHT22;22327;51.208;6.418;2022-10-16T04:49:33;16.30;99.90
36292;DHT22;22327;51.208;6.418;2022-10-16T04:51:59;16.20;99.90
36292;DHT22;22327;51.208;6.418;2022-10-16T04:54:24;16.20;99.90
36292;DHT22;22327;51.208;6.418;2022-10-16T04:56:50;16.20;99.90
36292;DHT22;22327;51.208;6.418;2022-10-16T04:59:18;16.20;99.90
36292;DHT22;22327;51.208;6.418;2022-10-16T05:01:44;16.30;99.90
36292;DHT22;22327;51.208;6.418;2022-10-16T05:04:10;16.30;99.90
36292;DHT22;22327;51.208;6.418;2022-10-16T05:06:36;16.30;99.90
36292;DHT22;22327;51.208;6.418;2022-10-16T05:09:04;16.40;99.90
36292;DHT22;22327;51.208;6.418;2022-10-16T05:11:30;16.30;99.90
36292;DHT22;22327;51.208;6.418;2022-10-16T05:13:55;16.30;99.90
36292;DHT22;22327;51.208;6.418;2022-10-16T05:16:21;16.30;99.90
36292;DHT22;22327;51.208;6.418;2022-10-16T05:18:46;16.30;99.90
36292;DHT22;22327;51.208;6.418;2022-10-16T05:21:12;16.30;99.90
36292;DHT22;22327;51.208;6.418;2022-10-16T05:23:37;16.30;99.90
36292;DHT22;22327;51.208;6.418;2022-10-16T05:26:03;16.30;99.90
36292;DHT22;22327;51.208;6.418;2022-10-16T05:28:29;16.30;99.90
36292;DHT22;22327;51.208;6.418;2022-10-16T05:30:55;16.30;99.90
36292;DHT22;22327;51.208;6.418;2022-10-16T05:33:22;16.30;99.90
36292;DHT22;22327;51.208;6.418;2022-10-16T05:35:48;16.30;99.90
36292;DHT22;22327;51.208;6.418;2022-10-16T05:38:15;16.30;99.90
36292;DHT22;22327;51.208;6.418;2022-10-16T05:40:41;16.20;99.90
36292;DHT22;22327;51.208;6.418;2022-10-16T05:43:07;16.20;99.90
36292;DHT22;22327;51.208;6.418;2022-10-16T05:45:32;16.20;99.90
36292;DHT22;22327;51.208;6.418;2022-10-16T05:47:59;16.20;99.90
36292;DHT22;22327;51.208;6.418;2022-10-16T05:50:25;16.20;99.90
36292;DHT22;22327;51.208;6.418;2022-10-16T05:52:51;16.30;99.90
36292;DHT22;22327;51.208;6.418;2022-10-16T05:55:16;16.30;99.90
36292;DHT22;22327;51.208;6.418;2022-10-16T05:57:42;16.20;99.90
36292;DHT22;22327;51.208;6.418;2022-10-16T06:00:07;16.20;99.90
36292;DHT22;22327;51.208;6.418;2022-10-16T06:02:33;16.20;99.90
36292;DHT22;22327;51.208;6.418;2022-10-16T06:04:59;16.20;99.90
36292;DHT22;22327;51.208;6.418;2022-10-16T06:07:24;16.20;99.90
36292;DHT22;22327;51.208;6.418;2022-10-16T06:09:50;16.20;99.90
36292;DHT22;22327;51.208;6.418;2022-10-16T06:12:16;16.10;99.90
36292;DHT22;22327;51.208;6.418;2022-10-16T06:14:42;16.20;99.90
36292;DHT22;22327;51.208;6.418;2022-10-16T06:17:08;16.20;99.90
36292;DHT22;22327;51.208;6.418;2022-10-16T06:19:33;16.20;99.90
36292;DHT22;22327;51.208;6.418;2022-10-16T06:21:59;16.20;99.90
36292;DHT22;22327;51.208;6.418;2022-10-16T06:24:25;16.30;99.90
36292;DHT22;22327;51.208;6.418;2022-10-16T06:26:51;16.30;99.90
36292;DHT22;22327;51.208;6.418;2022-10-16T06:29:16;16.30;99.90
36292;DHT22;22327;51.208;6.418;2022-10-16T06:31:42;16.40;99.90
36292;DHT22;22327;51.208;6.418;2022-10-16T06:34:09;16.40;99.90
36292;DHT22;22327;51.208;6.418;2022-10-16T06:36:37;16.50;99.90
36292;DHT22;22327;51.208;6.418;2022-10-16T06:39:03;16.50;99.90
36292;DHT22;22327;51.208;6.418;2022-10-16T06:41:29;16.60;99.90
36292;DHT22;22327;51.208;6.418;2022-10-16T06:43:54;16.60;99.90
36292;DHT22;22327;51.208;6.418;2022-10-16T06:46:22;16.70;99.90
36292;DHT22;22327;51.208;6.418;2022-10-16T06:48:49;16.70;99.90
36292;DHT22;22327;51.208;6.418;2022-10-16T06:51:16;16.70;99.90
36292;DHT22;22327;51.208;6.418;2022-10-16T06:53:45;16.70;99.90
36292;DHT22;22327;51.208;6.418;2022-10-16T06:56:16;16.80;99.90
36292;DHT22;22327;51.208;6.418;2022-10-16T06:58:42;16.80;99.90
36292;DHT22;22327;51.208;6.418;2022-10-16T07:01:08;16.70;99.90
36292;DHT22;22327;51.208;6.418;2022-10-16T07:03:37;16.80;99.90
36292;DHT22;22327;51.208;6.418;2022-10-16T07:06:04;16.70;99.90
36292;DHT22;22327;51.208;6.418;2022-10-16T07:08:32;16.70;99.90
36292;DHT22;22327;51.208;6.418;2022-10-16T07:11:02;16.70;99.90
36292;DHT22;22327;51.208;6.418;2022-10-16T07:13:27;16.70;99.90
36292;DHT22;22327;51.208;6.418;2022-10-16T07:15:53;16.70;99.90
36292;DHT22;22327;51.208;6.418;2022-10-16T07:18:19;16.70;99.90
36292;DHT22;22327;51.208;6.418;2022-10-16T07:20:44;16.70;99.90
36292;DHT22;22327;51.208;6.418;2022-10-16T07:23:10;16.70;99.90
36292;DHT22;22327;51.208;6.418;2022-10-16T07:25:35;16.80;99.90
36292;DHT22;22327;51.208;6.418;2022-10-16T07:28:01;16.80;99.90
36292;DHT22;22327;51.208;6.418;2022-10-16T07:30:26;16.90;99.90
36292;DHT22;22327;51.208;6.418;2022-10-16T07:32:52;16.90;99.90
36292;DHT22;22327;51.208;6.418;2022-10-16T07:35:17;17.00;99.90
36292;DHT22;22327;51.208;6.418;2022-10-16T07:37:46;17.00;99.90
36292;DHT22;22327;51.208;6.418;2022-10-16T07:40:12;17.10;99.90
36292;DHT22;22327;51.208;6.418;2022-10-16T07:42:38;17.10;99.90
36292;DHT22;22327;51.208;6.418;2022-10-16T07:45:04;17.20;99.90
36292;DHT22;22327;51.208;6.418;2022-10-16T07:47:29;17.20;99.90
36292;DHT22;22327;51.208;6.418;2022-10-16T07:49:55;17.30;99.90
36292;DHT22;22327;51.208;6.418;2022-10-16T07:52:20;17.30;99.90
36292;DHT22;22327;51.208;6.418;2022-10-16T07:54:46;17.40;99.90
36292;DHT22;22327;51.208;6.418;2022-10-16T07:57:11;17.50;99.90
36292;DHT22;22327;51.208;6.418;2022-10-16T07:59:37;17.50;99.90
36292;DHT22;22327;51.208;6.418;2022-10-16T08:02:03;17.50;99.90
36292;DHT22;22327;51.208;6.418;2022-10-16T08:04:28;17.70;99.90
36292;DHT22;22327;51.208;6.418;2022-10-16T08:06:54;17.70;99.70
36292;DHT22;22327;51.208;6.418;2022-10-16T08:09:20;17.70;99.80
36292;DHT22;22327;51.208;6.418;2022-10-16T08:11:45;17.80;99.70
36292;DHT22;22327;51.208;6.418;2022-10-16T08:14:11;17.90;99.60
36292;DHT22;22327;51.208;6.418;2022-10-16T08:16:36;18.00;99.40
36292;DHT22;22327;51.208;6.418;2022-10-16T08:19:03;18.10;99.30
36292;DHT22;22327;51.208;6.418;2022-10-16T08:21:30;18.10;99.00
36292;DHT22;22327;51.208;6.418;2022-10-16T08:23:55;18.10;98.90
36292;DHT22;22327;51.208;6.418;2022-10-16T08:26:21;18.20;99.00
36292;DHT22;22327;51.208;6.418;2022-10-16T08:28:49;18.30;99.00
36292;DHT22;22327;51.208;6.418;2022-10-16T08:31:16;18.40;98.70
36292;DHT22;22327;51.208;6.418;2022-10-16T08:33:44;18.50;98.70
36292;DHT22;22327;51.208;6.418;2022-10-16T08:36:12;18.50;98.40
36292;DHT22;22327;51.208;6.418;2022-10-16T08:38:38;18.60;98.40
36292;DHT22;22327;51.208;6.418;2022-10-16T08:41:21;18.70;98.30
36292;DHT22;22327;51.208;6.418;2022-10-16T08:49:12;19.10;97.70
36292;DHT22;22327;51.208;6.418;2022-10-16T08:51:39;19.20;97.50
36292;DHT22;22327;51.208;6.418;2022-10-16T08:54:41;19.50;97.60
36292;DHT22;22327;51.208;6.418;2022-10-16T08:57:16;19.90;97.40
36292;DHT22;22327;51.208;6.418;2022-10-16T08:59:42;20.90;97.20
36292;DHT22;22327;51.208;6.418;2022-10-16T09:02:40;21.90;96.10
36292;DHT22;22327;51.208;6.418;2022-10-16T09:05:44;23.40;92.40
36292;DHT22;22327;51.208;6.418;2022-10-16T09:08:39;24.60;90.50
36292;DHT22;22327;51.208;6.418;2022-10-16T09:11:34;25.90;83.90
36292;DHT22;22327;51.208;6.418;2022-10-16T09:14:13;26.40;84.20
36292;DHT22;22327;51.208;6.418;2022-10-16T09:16:45;27.10;77.20
36292;DHT22;22327;51.208;6.418;2022-10-16T09:19:27;27.50;73.60
36292;DHT22;22327;51.208;6.418;2022-10-16T09:21:56;27.50;67.50
36292;DHT22;22327;51.208;6.418;2022-10-16T09:24:25;27.20;66.00
36292;DHT22;22327;51.208;6.418;2022-10-16T09:26:51;27.20;67.70
36292;DHT22;22327;51.208;6.418;2022-10-16T09:29:18;27.40;70.70
36292;DHT22;22327;51.208;6.418;2022-10-16T09:31:46;27.50;72.20
36292;DHT22;22327;51.208;6.418;2022-10-16T09:34:31;27.50;67.50
36292;DHT22;22327;51.208;6.418;2022-10-16T09:36:59;27.00;63.50
36292;DHT22;22327;51.208;6.418;2022-10-16T09:39:24;26.10;65.30
36292;DHT22;22327;51.208;6.418;2022-10-16T09:41:50;25.20;67.80
36292;DHT22;22327;51.208;6.418;2022-10-16T09:44:30;24.40;70.50
36292;DHT22;22327;51.208;6.418;2022-10-16T09:47:15;23.80;73.80
36292;DHT22;22327;51.208;6.418;2022-10-16T09:49:56;23.30;75.60
36292;DHT22;22327;51.208;6.418;2022-10-16T09:52:23;22.90;76.70
36292;DHT22;22327;51.208;6.418;2022-10-16T09:55:13;22.50;78.70
36292;DHT22;22327;51.208;6.418;2022-10-16T09:57:52;22.30;80.10
36292;DHT22;22327;51.208;6.418;2022-10-16T10:00:19;22.10;80.70
36292;DHT22;22327;51.208;6.418;2022-10-16T10:02:45;21.90;81.60
36292;DHT22;22327;51.208;6.418;2022-10-16T10:08:02;21.90;82.60
36292;DHT22;22327;51.208;6.418;2022-10-16T10:10:34;21.80;83.80
36292;DHT22;22327;51.208;6.418;2022-10-16T10:13:02;21.70;83.40
36292;DHT22;22327;51.208;6.418;2022-10-16T10:15:33;21.60;84.20
36292;DHT22;22327;51.208;6.418;2022-10-16T10:18:00;21.50;83.70
36292;DHT22;22327;51.208;6.418;2022-10-16T10:20:31;21.50;84.50
36292;DHT22;22327;51.208;6.418;2022-10-16T10:23:13;21.60;84.20
36292;DHT22;22327;51.208;6.418;2022-10-16T10:28:18;21.60;83.60
36292;DHT22;22327;51.208;6.418;2022-10-16T10:33:47;21.60;84.20
36292;DHT22;22327;51.208;6.418;2022-10-16T10:51:01;21.70;83.40
36292;DHT22;22327;51.208;6.418;2022-10-16T10:56:41;21.70;84.30
36292;DHT22;22327;51.208;6.418;2022-10-16T11:02:16;21.90;83.20
36292;DHT22;22327;51.208;6.418;2022-10-16T11:05:02;21.90;83.40
36292;DHT22;22327;51.208;6.418;2022-10-16T11:07:38;22.00;83.10
36292;DHT22;22327;51.208;6.418;2022-10-16T11:10:29;22.10;83.30
36292;DHT22;22327;51.208;6.418;2022-10-16T11:13:09;22.10;81.50
36292;DHT22;22327;51.208;6.418;2022-10-16T11:15:39;22.00;81.60
36292;DHT22;22327;51.208;6.418;2022-10-16T11:18:11;21.90;80.80
36292;DHT22;22327;51.208;6.418;2022-10-16T11:20:49;21.90;81.20
36292;DHT22;22327;51.208;6.418;2022-10-16T11:23:37;21.90;82.50
36292;DHT22;22327;51.208;6.418;2022-10-16T11:26:14;21.90;82.00
36292;DHT22;22327;51.208;6.418;2022-10-16T11:28:50;21.80;81.20
36292;DHT22;22327;51.208;6.418;2022-10-16T11:31:24;21.80;81.80
36292;DHT22;22327;51.208;6.418;2022-10-16T11:34:29;21.90;81.10
36292;DHT22;22327;51.208;6.418;2022-10-16T11:37:41;22.00;80.50
36292;DHT22;22327;51.208;6.418;2022-10-16T11:40:21;22.10;80.50
36292;DHT22;22327;51.208;6.418;2022-10-16T11:42:54;22.10;79.60
36292;DHT22;22327;51.208;6.418;2022-10-16T11:45:40;22.10;79.50
36292;DHT22;22327;51.208;6.418;2022-10-16T11:50:57;22.10;79.00
36292;DHT22;22327;51.208;6.418;2022-10-16T11:56:23;22.10;79.60
36292;DHT22;22327;51.208;6.418;2022-10-16T11:59:02;22.10;80.20
36292;DHT22;22327;51.208;6.418;2022-10-16T12:04:38;22.30;79.80
36292;DHT22;22327;51.208;6.418;2022-10-16T12:07:14;22.40;79.20
36292;DHT22;22327;51.208;6.418;2022-10-16T12:09:41;22.40;77.70
36292;DHT22;22327;51.208;6.418;2022-10-16T12:12:25;22.50;78.10
36292;DHT22;22327;51.208;6.418;2022-10-16T12:15:01;22.60;78.60
36292;DHT22;22327;51.208;6.418;2022-10-16T12:17:36;22.70;77.10
36292;DHT22;22327;51.208;6.418;2022-10-16T12:22:37;23.10;75.30
36292;DHT22;22327;51.208;6.418;2022-10-16T12:25:24;23.20;74.00
36292;DHT22;22327;51.208;6.418;2022-10-16T12:28:28;23.30;73.20
36292;DHT22;22327;51.208;6.418;2022-10-16T12:31:01;23.40;74.00
36292;DHT22;22327;51.208;6.418;2022-10-16T12:33:30;23.50;72.50
36292;DHT22;22327;51.208;6.418;2022-10-16T12:35:58;23.40;72.30
36292;DHT22;22327;51.208;6.418;2022-10-16T12:38:32;23.40;71.90
36292;DHT22;22327;51.208;6.418;2022-10-16T12:41:06;23.50;70.70
36292;DHT22;22327;51.208;6.418;2022-10-16T12:43:42;23.60;69.80
36292;DHT22;22327;51.208;6.418;2022-10-16T12:48:33;23.70;69.30
36292;DHT22;22327;51.208;6.418;2022-10-16T12:54:19;23.60;69.50
36292;DHT22;22327;51.208;6.418;2022-10-16T12:57:02;23.40;70.30
36292;DHT22;22327;51.208;6.418;2022-10-16T13:24:47;23.80;70.70
36292;DHT22;22327;51.208;6.418;2022-10-16T13:30:17;23.80;72.10
36292;DHT22;22327;51.208;6.418;2022-10-16T13:32:46;23.90;72.10
36292;DHT22;22327;51.208;6.418;2022-10-16T13:35:24;24.00;72.10
36292;DHT22;22327;51.208;6.418;2022-10-16T13:37:50;24.10;70.80
36292;DHT22;22327;51.208;6.418;2022-10-16T13:40:21;24.20;70.90
36292;DHT22;22327;51.208;6.418;2022-10-16T13:42:48;24.30;69.90
36292;DHT22;22327;51.208;6.418;2022-10-16T13:45:23;24.20;71.30
36292;DHT22;22327;51.208;6.418;2022-10-16T13:47:49;24.30;70.60
36292;DHT22;22327;51.208;6.418;2022-10-16T13:50:17;24.40;71.50
36292;DHT22;22327;51.208;6.418;2022-10-16T13:52:43;24.60;71.40
36292;DHT22;22327;51.208;6.418;2022-10-16T13:55:14;24.70;71.10
36292;DHT22;22327;51.208;6.418;2022-10-16T13:57:40;24.60;71.00
36292;DHT22;22327;51.208;6.418;2022-10-16T14:00:28;24.50;69.90
36292;DHT22;22327;51.208;6.418;2022-10-16T14:03:16;24.40;69.20
36292;DHT22;22327;51.208;6.418;2022-10-16T14:05:51;24.10;70.00
36292;DHT22;22327;51.208;6.418;2022-10-16T14:08:18;24.00;70.30
36292;DHT22;22327;51.208;6.418;2022-10-16T14:10:48;24.00;70.20
36292;DHT22;22327;51.208;6.418;2022-10-16T14:13:18;24.00;70.70
36292;DHT22;22327;51.208;6.418;2022-10-16T14:15:49;24.10;72.00
36292;DHT22;22327;51.208;6.418;2022-10-16T14:18:21;24.10;71.70
36292;DHT22;22327;51.208;6.418;2022-10-16T14:20:49;24.20;71.70
36292;DHT22;22327;51.208;6.418;2022-10-16T14:23:29;24.30;72.20
36292;DHT22;22327;51.208;6.418;2022-10-16T14:26:06;24.40;71.80
36292;DHT22;22327;51.208;6.418;2022-10-16T14:28:39;24.30;71.40
36292;DHT22;22327;51.208;6.418;2022-10-16T14:33:51;24.30;71.00
36292;DHT22;22327;51.208;6.418;2022-10-16T14:36:17;24.10;71.20
36292;DHT22;22327;51.208;6.418;2022-10-16T14:39:03;24.10;71.60
36292;DHT22;22327;51.208;6.418;2022-10-16T14:41:31;24.20;71.70
36292;DHT22;22327;51.208;6.418;2022-10-16T14:44:02;24.00;72.50
36292;DHT22;22327;51.208;6.418;2022-10-16T14:46:38;24.00;72.60
36292;DHT22;22327;51.208;6.418;2022-10-16T14:49:25;24.00;72.30
36292;DHT22;22327;51.208;6.418;2022-10-16T14:51:50;23.90;72.00
36292;DHT22;22327;51.208;6.418;2022-10-16T14:54:18;23.80;72.10
36292;DHT22;22327;51.208;6.418;2022-10-16T14:56:47;23.80;72.30
36292;DHT22;22327;51.208;6.418;2022-10-16T14:59:29;23.70;72.60
36292;DHT22;22327;51.208;6.418;2022-10-16T15:01:55;23.70;72.90
36292;DHT22;22327;51.208;6.418;2022-10-16T15:04:20;23.60;73.00
36292;DHT22;22327;51.208;6.418;2022-10-16T15:06:46;23.60;73.50
36292;DHT22;22327;51.208;6.418;2022-10-16T15:09:12;23.50;74.50
36292;DHT22;22327;51.208;6.418;2022-10-16T15:11:37;23.50;74.80
36292;DHT22;22327;51.208;6.418;2022-10-16T15:14:03;23.40;75.40
36292;DHT22;22327;51.208;6.418;2022-10-16T15:16:30;23.30;75.80
36292;DHT22;22327;51.208;6.418;2022-10-16T15:18:56;23.30;76.50
36292;DHT22;22327;51.208;6.418;2022-10-16T15:23:50;23.20;76.40
36292;DHT22;22327;51.208;6.418;2022-10-16T15:26:18;23.10;76.90
36292;DHT22;22327;51.208;6.418;2022-10-16T15:28:44;23.10;77.30
36292;DHT22;22327;51.208;6.418;2022-10-16T15:31:09;23.10;77.80
36292;DHT22;22327;51.208;6.418;2022-10-16T15:33:35;23.10;77.70
36292;DHT22;22327;51.208;6.418;2022-10-16T15:36:01;23.10;77.80
36292;DHT22;22327;51.208;6.418;2022-10-16T15:38:30;23.10;78.40
36292;DHT22;22327;51.208;6.418;2022-10-16T15:40:56;23.00;81.40
36292;DHT22;22327;51.208;6.418;2022-10-16T15:43:22;22.80;82.00
36292;DHT22;22327;51.208;6.418;2022-10-16T15:45:59;22.70;83.30
36292;DHT22;22327;51.208;6.418;2022-10-16T15:48:26;22.70;84.30
36292;DHT22;22327;51.208;6.418;2022-10-16T15:50:51;22.60;84.40
36292;DHT22;22327;51.208;6.418;2022-10-16T15:53:17;22.60;84.70
36292;DHT22;22327;51.208;6.418;2022-10-16T15:55:42;22.60;85.40
36292;DHT22;22327;51.208;6.418;2022-10-16T15:58:08;22.50;86.20
36292;DHT22;22327;51.208;6.418;2022-10-16T16:00:33;22.40;86.20
36292;DHT22;22327;51.208;6.418;2022-10-16T16:02:59;22.40;86.70
36292;DHT22;22327;51.208;6.418;2022-10-16T16:05:24;22.40;87.20
36292;DHT22;22327;51.208;6.418;2022-10-16T16:07:50;22.20;87.40
36292;DHT22;22327;51.208;6.418;2022-10-16T16:10:16;22.20;88.20
36292;DHT22;22327;51.208;6.418;2022-10-16T16:12:42;22.10;88.10
36292;DHT22;22327;51.208;6.418;2022-10-16T16:15:09;22.00;87.80
36292;DHT22;22327;51.208;6.418;2022-10-16T16:17:35;22.00;88.20
36292;DHT22;22327;51.208;6.418;2022-10-16T16:20:03;21.90;88.70
36292;DHT22;22327;51.208;6.418;2022-10-16T16:22:29;21.90;88.40
36292;DHT22;22327;51.208;6.418;2022-10-16T16:24:54;21.90;88.30
36292;DHT22;22327;51.208;6.418;2022-10-16T16:27:20;21.80;88.50
36292;DHT22;22327;51.208;6.418;2022-10-16T16:32:13;21.80;88.80
36292;DHT22;22327;51.208;6.418;2022-10-16T16:34:39;21.70;89.40
36292;DHT22;22327;51.208;6.418;2022-10-16T16:37:04;21.70;89.50
36292;DHT22;22327;51.208;6.418;2022-10-16T16:39:30;21.70;90.10
36292;DHT22;22327;51.208;6.418;2022-10-16T16:41:57;21.60;90.20
36292;DHT22;22327;51.208;6.418;2022-10-16T16:44:24;21.50;90.40
36292;DHT22;22327;51.208;6.418;2022-10-16T16:46:49;21.40;90.50
36292;DHT22;22327;51.208;6.418;2022-10-16T16:49:15;21.30;90.70
36292;DHT22;22327;51.208;6.418;2022-10-16T16:51:41;21.30;90.90
36292;DHT22;22327;51.208;6.418;2022-10-16T16:54:07;21.20;90.90
36292;DHT22;22327;51.208;6.418;2022-10-16T16:56:33;21.20;90.90
36292;DHT22;22327;51.208;6.418;2022-10-16T16:58:59;21.10;91.20
36292;DHT22;22327;51.208;6.418;2022-10-16T17:01:27;21.00;91.40
36292;DHT22;22327;51.208;6.418;2022-10-16T17:03:54;20.90;91.80
36292;DHT22;22327;51.208;6.418;2022-10-16T17:06:23;20.80;91.90
36292;DHT22;22327;51.208;6.418;2022-10-16T17:08:49;20.70;91.90
36292;DHT22;22327;51.208;6.418;2022-10-16T17:11:18;20.70;91.90
36292;DHT22;22327;51.208;6.418;2022-10-16T17:13:44;20.70;91.90
36292;DHT22;22327;51.208;6.418;2022-10-16T17:16:10;20.70;91.90
36292;DHT22;22327;51.208;6.418;2022-10-16T17:18:36;20.60;92.00
36292;DHT22;22327;51.208;6.418;2022-10-16T17:21:04;20.50;91.90
36292;DHT22;22327;51.208;6.418;2022-10-16T17:23:30;20.50;92.10